createdAt,value
2017-12-04T00:02:04.906Z,97497.72
2017-12-04T00:04:30.738Z,97505.02
2017-12-04T00:06:56.541Z,97506.66
2017-12-04T00:09:22.384Z,97511.40
2017-12-04T00:11:49.010Z,97507.92
2017-12-04T00:14:14.853Z,97507.41
2017-12-04T00:16:43.767Z,97514.17
2017-12-04T00:19:09.615Z,97519.25
2017-12-04T00:21:39.101Z,97516.23
2017-12-04T00:24:04.920Z,97518.71
2017-12-04T00:26:34.642Z,97523.28
2017-12-04T00:29:00.469Z,97525.34
2017-12-04T00:31:28.318Z,97524.58
2017-12-04T00:33:54.122Z,97528.79
2017-12-04T00:36:23.553Z,97534.80
2017-12-04T00:38:49.352Z,97531.44
2017-12-04T00:41:15.148Z,97536.08
2017-12-04T00:43:40.931Z,97534.98
2017-12-04T00:46:06.758Z,97534.68
2017-12-04T00:48:36.162Z,97541.58
2017-12-04T00:51:02.017Z,97537.77
2017-12-04T00:53:30.952Z,97535.31
2017-12-04T00:55:56.748Z,97531.55
2017-12-04T00:58:23.934Z,97532.83
2017-12-04T01:00:49.729Z,97534.57
2017-12-04T01:03:22.322Z,97535.83
2017-12-04T01:05:48.129Z,97534.08
2017-12-04T01:08:14.002Z,97533.67
2017-12-04T01:10:39.832Z,97534.92
2017-12-04T01:13:09.370Z,97539.96
2017-12-04T01:15:35.172Z,97542.05
2017-12-04T01:18:00.995Z,97548.44
2017-12-04T01:20:26.843Z,97542.03
2017-12-04T01:22:52.622Z,97540.75
2017-12-04T01:25:19.669Z,97543.23
2017-12-04T01:27:45.471Z,97549.62
2017-12-04T01:30:14.814Z,97553.42
2017-12-04T01:32:40.625Z,97551.72
2017-12-04T01:35:09.769Z,97552.51
2017-12-04T01:37:35.591Z,97551.16
2017-12-04T01:40:05.391Z,97552.97
2017-12-04T01:42:31.175Z,97557.75
2017-12-04T01:44:58.602Z,97564.19
2017-12-04T01:47:24.401Z,97562.93
2017-12-04T01:49:53.561Z,97561.58
2017-12-04T01:52:19.371Z,97564.49
2017-12-04T01:54:45.181Z,97569.76
2017-12-04T01:57:11.031Z,97567.23
2017-12-04T01:59:36.808Z,97568.53
2017-12-04T02:02:06.627Z,97557.83
2017-12-04T02:04:32.458Z,97555.67
2017-12-04T02:07:01.305Z,97567.59
2017-12-04T02:09:27.129Z,97563.25
2017-12-04T02:11:56.194Z,97560.31
2017-12-04T02:14:21.992Z,97564.97
2017-12-04T02:16:51.066Z,97562.33
2017-12-04T02:19:16.865Z,97570.41
2017-12-04T02:21:45.686Z,97569.98
2017-12-04T02:24:11.526Z,97571.66
2017-12-04T02:26:38.706Z,97570.67
2017-12-04T02:29:04.509Z,97565.03
2017-12-04T02:31:30.344Z,97564.55
2017-12-04T02:33:56.180Z,97561.99
2017-12-04T02:36:22.021Z,97565.80
2017-12-04T02:38:50.818Z,97558.59
2017-12-04T02:41:16.693Z,97561.95
2017-12-04T02:43:45.022Z,97568.88
2017-12-04T02:46:10.842Z,97573.12
2017-12-04T02:48:39.457Z,97571.41
2017-12-04T02:51:05.248Z,97573.12
2017-12-04T02:56:01.935Z,97565.55
2017-12-04T02:58:30.770Z,97567.81
2017-12-04T03:00:56.595Z,97569.54
2017-12-04T03:03:23.990Z,97566.27
2017-12-04T03:05:49.796Z,97569.83
2017-12-04T03:08:15.568Z,97572.45
2017-12-04T03:10:41.378Z,97576.80
2017-12-04T03:13:07.209Z,97581.16
2017-12-04T03:15:36.618Z,97577.28
2017-12-04T03:18:02.429Z,97579.00
2017-12-04T03:20:30.439Z,97583.66
2017-12-04T03:22:56.292Z,97589.66
2017-12-04T03:25:25.688Z,97587.09
2017-12-04T03:27:51.497Z,97585.75
2017-12-04T03:30:21.220Z,97584.41
2017-12-04T03:32:47.054Z,97588.25
2017-12-04T03:35:16.126Z,97587.84
2017-12-04T03:37:41.996Z,97583.05
2017-12-04T03:40:10.903Z,97589.09
2017-12-04T03:42:36.732Z,97589.05
2017-12-04T03:45:02.651Z,97588.66
2017-12-04T03:47:28.432Z,97586.42
2017-12-04T03:49:54.221Z,97589.33
2017-12-04T03:52:21.218Z,97591.00
2017-12-04T03:54:47.029Z,97583.28
2017-12-04T03:57:16.198Z,97588.41
2017-12-04T03:59:42.100Z,97590.07
2017-12-04T04:02:10.169Z,97594.33
2017-12-04T04:04:36.014Z,97590.91
2017-12-04T04:09:32.645Z,97597.29
2017-12-04T04:12:00.247Z,97594.22
2017-12-04T04:14:26.055Z,97604.00
2017-12-04T04:16:55.044Z,97609.11
2017-12-04T04:19:20.857Z,97606.50
2017-12-04T04:21:46.652Z,97600.94
2017-12-04T04:24:12.471Z,97601.04
2017-12-04T04:26:38.256Z,97606.32
2017-12-04T04:29:07.724Z,97601.27
2017-12-04T04:31:33.551Z,97601.70
2017-12-04T04:34:02.755Z,97594.01
2017-12-04T04:36:28.634Z,97601.33
2017-12-04T04:38:56.333Z,97602.98
2017-12-04T04:41:22.196Z,97602.58
2017-12-04T04:43:51.138Z,97604.66
2017-12-04T04:46:17.045Z,97605.98
2017-12-04T04:48:46.056Z,97610.22
2017-12-04T04:51:11.976Z,97608.10
2017-12-04T04:53:40.280Z,97605.52
2017-12-04T04:56:06.113Z,97604.58
2017-12-04T04:58:31.953Z,97607.08
2017-12-04T05:00:57.729Z,97600.59
2017-12-04T05:03:23.566Z,97606.17
2017-12-04T05:05:53.289Z,97614.65
2017-12-04T05:08:19.088Z,97617.16
2017-12-04T05:10:46.403Z,97624.88
2017-12-04T05:13:12.232Z,97620.16
2017-12-04T05:15:41.507Z,97630.91
2017-12-04T05:18:07.374Z,97632.64
2017-12-04T05:20:37.001Z,97633.18
2017-12-04T05:23:02.846Z,97640.13
2017-12-04T05:25:31.885Z,97643.91
2017-12-04T05:27:57.732Z,97640.51
2017-12-04T05:30:25.383Z,97649.13
2017-12-04T05:32:52.274Z,97649.14
2017-12-04T05:35:18.143Z,97653.37
2017-12-04T05:37:43.954Z,97655.95
2017-12-04T05:40:09.823Z,97643.99
2017-12-04T05:42:36.934Z,97641.43
2017-12-04T05:45:02.814Z,97643.09
2017-12-04T05:47:32.478Z,97650.73
2017-12-04T05:49:58.270Z,97654.20
2017-12-04T05:52:26.407Z,97656.33
2017-12-04T05:54:52.215Z,97661.00
2017-12-04T05:57:21.586Z,97661.83
2017-12-04T05:59:47.423Z,97663.58
2017-12-04T06:02:16.384Z,97665.77
2017-12-04T06:04:42.154Z,97664.50
2017-12-04T06:07:11.916Z,97666.22
2017-12-04T06:09:37.786Z,97668.33
2017-12-04T06:12:03.550Z,97672.18
2017-12-04T06:14:29.382Z,97672.56
2017-12-04T06:16:55.219Z,97671.30
2017-12-04T06:19:22.534Z,97675.05
2017-12-04T06:21:48.321Z,97670.78
2017-12-04T06:24:17.697Z,97677.59
2017-12-04T06:26:43.565Z,97679.36
2017-12-04T06:29:13.215Z,97683.68
2017-12-04T06:31:39.035Z,97683.29
2017-12-04T06:34:06.268Z,97687.95
2017-12-04T06:36:32.077Z,97687.52
2017-12-04T06:39:01.252Z,97684.93
2017-12-04T06:41:27.096Z,97696.12
2017-12-04T06:43:56.136Z,97696.55
2017-12-04T06:46:21.943Z,97701.72
2017-12-04T06:48:47.771Z,97700.44
2017-12-04T06:51:13.609Z,97700.91
2017-12-04T06:53:39.436Z,97701.77
2017-12-04T06:56:09.092Z,97711.61
2017-12-04T06:58:34.914Z,97699.61
2017-12-04T07:01:03.618Z,97703.43
2017-12-04T07:03:29.445Z,97707.30
2017-12-04T07:05:57.096Z,97714.55
2017-12-04T07:08:22.908Z,97720.95
2017-12-04T07:10:51.386Z,97723.47
2017-12-04T07:13:17.179Z,97728.14
2017-12-04T07:18:13.996Z,97731.55
2017-12-04T07:20:41.201Z,97733.25
2017-12-04T07:23:06.975Z,97742.61
2017-12-04T07:25:32.819Z,97748.59
2017-12-04T07:27:58.637Z,97751.97
2017-12-04T07:30:24.458Z,97752.05
2017-12-04T07:32:53.672Z,97753.25
2017-12-04T07:35:19.468Z,97758.81
2017-12-04T07:37:47.593Z,97767.72
2017-12-04T07:40:13.383Z,97770.30
2017-12-04T07:42:42.486Z,97770.25
2017-12-04T07:45:08.295Z,97772.36
2017-12-04T07:47:37.397Z,97780.87
2017-12-04T07:50:03.198Z,97781.28
2017-12-04T07:52:32.207Z,97779.16
2017-12-04T07:54:58.060Z,97784.68
2017-12-04T07:57:27.209Z,97782.52
2017-12-04T07:59:53.042Z,97788.44
2017-12-04T08:02:18.893Z,97789.27
2017-12-04T08:04:44.767Z,97784.58
2017-12-04T08:07:10.559Z,97783.25
2017-12-04T08:09:38.071Z,97780.19
2017-12-04T08:12:03.910Z,97785.73
2017-12-04T08:14:33.207Z,97778.91
2017-12-04T08:16:59.081Z,97775.08
2017-12-04T08:19:28.230Z,97776.35
2017-12-04T08:21:54.046Z,97780.22
2017-12-04T08:24:23.840Z,97780.23
2017-12-04T08:26:49.680Z,97790.10
2017-12-04T08:29:17.229Z,97793.97
2017-12-04T08:31:43.038Z,97790.99
2017-12-04T08:34:12.658Z,97792.72
2017-12-04T08:36:38.490Z,97793.98
2017-12-04T08:39:04.315Z,97801.69
2017-12-04T08:41:30.134Z,97803.86
2017-12-04T08:43:55.917Z,97811.03
2017-12-04T08:46:23.349Z,97806.33
2017-12-04T08:48:49.131Z,97814.81
2017-12-04T08:51:18.364Z,97811.34
2017-12-04T08:53:44.241Z,97818.22
2017-12-04T08:56:13.624Z,97816.52
2017-12-04T08:58:39.534Z,97820.85
2017-12-04T09:01:08.398Z,97821.32
2017-12-04T09:03:34.212Z,97825.19
2017-12-04T09:06:03.510Z,97820.84
2017-12-04T09:08:29.318Z,97824.73
2017-12-04T09:10:57.016Z,97826.79
2017-12-04T09:13:22.847Z,97831.39
2017-12-04T09:15:48.665Z,97835.67
2017-12-04T09:18:14.479Z,97839.92
2017-12-04T09:20:40.444Z,97845.05
2017-12-04T09:23:10.097Z,97833.91
2017-12-04T09:25:35.926Z,97837.30
2017-12-04T09:28:05.261Z,97834.73
2017-12-04T09:30:31.105Z,97839.39
2017-12-04T09:32:58.800Z,97848.41
2017-12-04T09:35:24.608Z,97851.39
2017-12-04T09:37:53.812Z,97852.66
2017-12-04T09:40:19.607Z,97857.34
2017-12-04T09:42:48.538Z,97859.47
2017-12-04T09:45:14.370Z,97855.48
2017-12-04T09:47:43.475Z,97857.12
2017-12-04T09:50:09.354Z,97855.86
2017-12-04T09:52:35.119Z,97857.56
2017-12-04T09:55:00.961Z,97858.39
2017-12-04T09:57:26.786Z,97863.95
2017-12-04T09:59:54.031Z,97857.52
2017-12-04T10:02:19.845Z,97861.23
2017-12-04T10:04:48.893Z,97857.37
2017-12-04T10:07:14.710Z,97859.03
2017-12-04T10:09:44.443Z,97852.13
2017-12-04T10:12:10.249Z,97858.95
2017-12-04T10:14:39.985Z,97856.44
2017-12-04T10:17:05.819Z,97858.61
2017-12-04T10:19:33.489Z,97855.61
2017-12-04T10:21:59.482Z,97851.24
2017-12-04T10:24:29.287Z,97849.00
2017-12-04T10:26:55.137Z,97846.88
2017-12-04T10:29:20.985Z,97846.88
2017-12-04T10:31:46.775Z,97841.72
2017-12-04T10:34:12.644Z,97838.37
2017-12-04T10:36:39.376Z,97846.09
2017-12-04T10:39:05.185Z,97845.17
2017-12-04T10:41:34.862Z,97837.45
2017-12-04T10:44:00.693Z,97847.27
2017-12-04T10:46:30.139Z,97834.30
2017-12-04T10:48:55.921Z,97848.89
2017-12-04T10:51:25.070Z,97840.70
2017-12-04T10:53:50.922Z,97841.03
2017-12-04T10:56:19.963Z,97848.34
2017-12-04T10:58:45.783Z,97845.74
2017-12-04T11:01:12.930Z,97841.39
2017-12-04T11:03:38.771Z,97847.88
2017-12-04T11:06:04.559Z,97842.73
2017-12-04T11:08:30.345Z,97842.22
2017-12-04T11:10:56.141Z,97843.48
2017-12-04T11:13:25.463Z,97841.33
2017-12-04T11:15:51.269Z,97840.02
2017-12-04T11:18:20.967Z,97841.27
2017-12-04T11:20:46.814Z,97842.13
2017-12-04T11:23:14.664Z,97847.78
2017-12-04T11:25:40.492Z,97845.70
2017-12-04T11:28:10.371Z,97846.20
2017-12-04T11:30:36.223Z,97844.39
2017-12-04T11:33:03.835Z,97848.60
2017-12-04T11:35:29.684Z,97852.05
2017-12-04T11:37:58.644Z,97846.88
2017-12-04T11:40:24.492Z,97848.88
2017-12-04T11:42:50.334Z,97850.08
2017-12-04T11:45:16.154Z,97846.47
2017-12-04T11:47:41.992Z,97844.30
2017-12-04T11:50:11.807Z,97846.27
2017-12-04T11:52:37.688Z,97857.84
2017-12-04T11:55:05.467Z,97853.05
2017-12-04T11:57:31.267Z,97855.16
2017-12-04T12:00:00.402Z,97856.02
2017-12-04T12:02:26.195Z,97863.20
2017-12-04T12:04:55.829Z,97859.29
2017-12-04T12:07:21.648Z,97860.58
2017-12-04T12:09:50.709Z,97856.66
2017-12-04T12:12:16.608Z,97852.77
2017-12-04T12:14:45.412Z,97856.24
2017-12-04T12:17:11.338Z,97858.81
2017-12-04T12:19:37.241Z,97859.34
2017-12-04T12:22:03.058Z,97859.33
2017-12-04T12:24:28.903Z,97865.34
2017-12-04T12:26:55.547Z,97856.80
2017-12-04T12:29:21.364Z,97858.14
2017-12-04T12:31:49.805Z,97852.70
2017-12-04T12:34:15.641Z,97855.34
2017-12-04T12:36:45.092Z,97854.92
2017-12-04T12:39:10.912Z,97854.47
2017-12-04T12:41:39.380Z,97850.13
2017-12-04T12:44:05.187Z,97852.67
2017-12-04T12:46:34.339Z,97857.86
2017-12-04T12:49:00.154Z,97856.59
2017-12-04T12:51:29.513Z,97860.13
2017-12-04T12:53:55.333Z,97863.61
2017-12-04T12:56:21.272Z,97864.86
2017-12-04T12:58:47.077Z,97859.83
2017-12-04T13:01:12.885Z,97864.16
2017-12-04T13:03:41.896Z,97861.60
2017-12-04T13:06:07.712Z,97859.89
2017-12-04T13:08:36.912Z,97859.03
2017-12-04T13:11:02.697Z,97857.77
2017-12-04T13:13:31.622Z,97856.88
2017-12-04T13:15:57.453Z,97862.08
2017-12-04T13:18:26.625Z,97863.79
2017-12-04T13:20:52.418Z,97862.02
2017-12-04T13:23:21.363Z,97869.74
2017-12-04T13:25:47.218Z,97873.15
2017-12-04T13:28:14.921Z,97875.34
2017-12-04T13:30:40.788Z,97876.45
2017-12-04T13:36:21.074Z,97872.94
2017-12-04T13:38:46.892Z,97892.39
2017-12-04T13:41:12.685Z,97895.32
2017-12-04T13:43:38.494Z,97893.54
2017-12-04T13:46:04.331Z,97894.39
2017-12-04T13:48:30.172Z,97897.00
2017-12-04T13:50:56.035Z,97892.36
2017-12-04T13:53:21.858Z,97891.91
2017-12-04T13:55:47.655Z,97891.86
2017-12-04T13:58:13.477Z,97897.39
2017-12-04T14:00:39.345Z,97898.30
2017-12-04T14:03:05.177Z,97902.21
2017-12-04T14:05:30.970Z,97898.70
2017-12-04T14:07:56.783Z,97896.06
2017-12-04T14:10:22.590Z,97900.73
2017-12-04T14:12:48.413Z,97904.13
2017-12-04T14:15:14.235Z,97906.36
2017-12-04T14:17:40.123Z,97906.48
2017-12-04T14:20:05.946Z,97915.08
2017-12-04T14:22:31.800Z,97913.85
2017-12-04T14:24:57.698Z,97910.08
2017-12-04T14:27:23.517Z,97908.84
2017-12-04T14:29:49.312Z,97908.55
2017-12-04T14:32:15.131Z,97919.41
2017-12-04T14:34:41.175Z,97913.05
2017-12-04T14:37:07.018Z,97908.69
2017-12-04T14:39:32.889Z,97920.74
2017-12-04T14:41:58.655Z,97922.52
2017-12-04T14:44:24.474Z,97917.87
2017-12-04T14:46:50.273Z,97920.89
2017-12-04T14:49:16.117Z,97925.57
2017-12-04T14:51:41.921Z,97919.16
2017-12-04T14:54:07.731Z,97920.03
2017-12-04T14:56:33.612Z,97916.67
2017-12-04T14:58:59.488Z,97917.54
2017-12-04T15:01:25.292Z,97928.25
2017-12-04T15:03:51.070Z,97929.56
2017-12-04T15:06:16.891Z,97930.81
2017-12-04T15:08:42.771Z,97934.73
2017-12-04T15:11:08.574Z,97936.39
2017-12-04T15:13:35.968Z,97936.84
2017-12-04T15:16:01.834Z,97939.84
2017-12-04T15:18:31.145Z,97938.56
2017-12-04T15:20:56.972Z,97940.70
2017-12-04T15:23:22.793Z,97942.91
2017-12-04T15:25:48.639Z,97936.47
2017-12-04T15:28:14.584Z,97937.38
2017-12-04T15:30:43.648Z,97942.95
2017-12-04T15:33:09.942Z,97944.28
2017-12-04T15:35:36.674Z,97945.53
2017-12-04T15:38:02.487Z,97940.89
2017-12-04T15:40:32.162Z,97943.44
2017-12-04T15:42:58.032Z,97938.77
2017-12-04T15:45:26.015Z,97937.09
2017-12-04T15:47:51.795Z,97943.49
2017-12-04T15:50:21.234Z,97940.91
2017-12-04T15:52:47.062Z,97943.08
2017-12-04T15:55:16.020Z,97946.50
2017-12-04T15:57:41.831Z,97935.33
2017-12-04T16:00:07.642Z,97953.69
2017-12-04T16:02:33.455Z,97958.81
2017-12-04T16:04:59.305Z,97958.34
2017-12-04T16:07:27.290Z,97962.56
2017-12-04T16:09:53.190Z,97967.22
2017-12-04T16:12:21.883Z,97978.72
2017-12-04T16:14:47.696Z,97984.36
2017-12-04T16:17:16.382Z,97989.48
2017-12-04T16:19:42.214Z,97988.13
2017-12-04T16:22:11.692Z,97988.97
2017-12-04T16:24:37.509Z,97994.95
2017-12-04T16:27:06.639Z,97994.91
2017-12-04T16:29:32.483Z,98000.02
2017-12-04T16:32:01.712Z,98008.53
2017-12-04T16:34:27.511Z,98002.91
2017-12-04T16:36:53.408Z,98009.80
2017-12-04T16:39:19.258Z,98012.37
2017-12-04T16:41:45.127Z,98009.74
2017-12-04T16:44:14.108Z,98015.73
2017-12-04T16:46:39.930Z,98017.48
2017-12-04T16:49:08.976Z,98014.50
2017-12-04T16:51:34.856Z,98020.91
2017-12-04T16:54:02.158Z,98022.64
2017-12-04T16:56:27.962Z,98018.30
2017-12-04T16:58:57.139Z,98029.86
2017-12-04T17:01:23.024Z,98025.49
2017-12-04T17:03:52.857Z,98028.94
2017-12-04T17:06:18.748Z,98040.51
2017-12-04T17:08:46.209Z,98040.53
2017-12-04T17:11:12.050Z,98039.59
2017-12-04T17:13:37.880Z,98045.16
2017-12-04T17:16:03.681Z,98042.50
2017-12-04T17:18:29.503Z,98043.38
2017-12-04T17:20:58.473Z,98046.77
2017-12-04T17:23:24.329Z,98056.19
2017-12-04T17:25:53.270Z,98051.05
2017-12-04T17:28:19.076Z,98059.19
2017-12-04T17:30:47.196Z,98056.67
2017-12-04T17:33:13.041Z,98061.83
2017-12-04T17:35:42.515Z,98060.92
2017-12-04T17:38:08.366Z,98060.48
2017-12-04T17:40:37.533Z,98051.89
2017-12-04T17:43:03.370Z,98067.67
2017-12-04T17:45:32.958Z,98062.44
2017-12-04T17:47:58.781Z,98068.08
2017-12-04T17:50:24.630Z,98067.20
2017-12-04T17:52:50.432Z,98076.17
2017-12-04T17:55:16.344Z,98083.89
2017-12-04T17:57:43.784Z,98082.56
2017-12-04T18:00:09.670Z,98092.02
2017-12-04T18:02:39.076Z,98095.37
2017-12-04T18:05:04.899Z,98094.03
2017-12-04T18:07:34.458Z,98102.20
2017-12-04T18:10:00.272Z,98090.14
2017-12-04T18:12:27.654Z,98094.53
2017-12-04T18:14:53.462Z,98095.91
2017-12-04T18:17:22.831Z,98093.33
2017-12-04T18:19:48.651Z,98098.55
2017-12-04T18:22:17.599Z,98097.58
2017-12-04T18:24:43.508Z,98096.86
2017-12-04T18:27:09.267Z,98092.59
2017-12-04T18:29:35.134Z,98096.91
2017-12-04T18:32:00.961Z,98090.55
2017-12-04T18:34:28.533Z,98096.20
2017-12-04T18:36:54.396Z,98096.24
2017-12-04T18:39:23.681Z,98103.15
2017-12-04T18:41:49.583Z,98106.13
2017-12-04T18:44:19.021Z,98110.87
2017-12-04T18:46:44.885Z,98119.45
2017-12-04T18:49:13.954Z,98116.03
2017-12-04T18:51:39.761Z,98112.63
2017-12-04T18:54:09.044Z,98119.06
2017-12-04T18:56:34.866Z,98126.77
2017-12-04T18:59:02.619Z,98130.22
2017-12-04T19:01:28.509Z,98119.55
2017-12-04T19:03:54.381Z,98118.71
2017-12-04T19:06:20.187Z,98122.59
2017-12-04T19:08:46.036Z,98125.61
2017-12-04T19:11:15.412Z,98118.81
2017-12-04T19:13:41.237Z,98130.34
2017-12-04T19:16:08.443Z,98134.18
2017-12-04T19:18:34.302Z,98139.34
2017-12-04T19:21:03.621Z,98139.33
2017-12-04T19:23:29.463Z,98144.47
2017-12-04T19:25:57.681Z,98145.75
2017-12-04T19:28:23.541Z,98147.03
2017-12-04T19:30:52.370Z,98147.91
2017-12-04T19:33:18.218Z,98145.30
2017-12-04T19:35:47.124Z,98155.66
2017-12-04T19:38:12.991Z,98149.20
2017-12-04T19:40:38.849Z,98150.08
2017-12-04T19:43:04.717Z,98147.91
2017-12-04T19:45:30.535Z,98155.61
2017-12-04T19:47:59.495Z,98150.41
2017-12-04T19:50:25.377Z,98153.41
2017-12-04T19:52:53.533Z,98162.80
2017-12-04T19:55:19.380Z,98164.95
2017-12-04T19:57:52.068Z,98165.83
2017-12-04T20:00:19.818Z,98165.75
2017-12-04T20:02:45.683Z,98167.88
2017-12-04T20:05:11.487Z,98169.60
2017-12-04T20:07:38.196Z,98179.00
2017-12-04T20:10:04.068Z,98177.25
2017-12-04T20:12:33.090Z,98175.09
2017-12-04T20:14:59.262Z,98180.69
2017-12-04T20:17:25.085Z,98182.88
2017-12-04T20:19:50.948Z,98187.56
2017-12-04T20:22:16.807Z,98194.86
2017-12-04T20:24:44.661Z,98197.03
2017-12-04T20:27:10.552Z,98196.13
2017-12-04T20:29:39.812Z,98191.84
2017-12-04T20:32:05.613Z,98190.09
2017-12-04T20:34:33.761Z,98199.17
2017-12-04T20:36:59.668Z,98187.59
2017-12-04T20:39:28.324Z,98186.72
2017-12-04T20:41:54.157Z,98195.30
2017-12-04T20:44:23.538Z,98188.47
2017-12-04T20:46:49.452Z,98186.30
2017-12-04T20:49:18.932Z,98191.52
2017-12-04T20:51:44.728Z,98196.26
2017-12-04T20:54:10.531Z,98194.52
2017-12-04T20:56:36.370Z,98200.55
2017-12-04T20:59:02.187Z,98199.20
2017-12-04T21:01:31.093Z,98200.55
2017-12-04T21:03:56.939Z,98189.77
2017-12-04T21:06:25.953Z,98201.40
2017-12-04T21:09:04.135Z,98202.67
2017-12-04T21:11:53.028Z,98206.11
2017-12-04T21:14:31.154Z,98212.95
2017-12-04T21:17:09.531Z,98213.38
2017-12-04T21:19:35.342Z,98217.24
2017-12-04T21:22:01.185Z,98219.35
2017-12-04T21:24:27.091Z,98224.15
2017-12-04T21:26:52.904Z,98226.22
2017-12-04T21:29:18.752Z,98231.83
2017-12-04T21:31:44.593Z,98229.23
2017-12-04T21:34:10.424Z,98236.95
2017-12-04T21:36:36.265Z,98237.41
2017-12-04T21:39:02.137Z,98242.15
2017-12-04T21:41:27.979Z,98244.70
2017-12-04T21:43:53.808Z,98248.13
2017-12-04T21:46:19.631Z,98252.39
2017-12-04T21:48:45.484Z,98254.06
2017-12-04T21:51:11.311Z,98248.50
2017-12-04T21:53:37.198Z,98249.72
2017-12-04T21:56:03.045Z,98249.28
2017-12-04T21:58:28.851Z,98247.16
2017-12-04T22:00:54.685Z,98251.83
2017-12-04T22:03:20.493Z,98252.25
2017-12-04T22:05:46.276Z,98249.61
2017-12-04T22:08:12.069Z,98251.28
2017-12-04T22:10:37.875Z,98256.39
2017-12-04T22:13:03.673Z,98256.41
2017-12-04T22:15:29.506Z,98263.28
2017-12-04T22:17:55.336Z,98266.75
2017-12-04T22:20:21.128Z,98265.48
2017-12-04T22:22:46.916Z,98267.14
2017-12-04T22:25:12.752Z,98270.56
2017-12-04T22:27:38.558Z,98276.08
2017-12-04T22:30:04.381Z,98271.30
2017-12-04T22:32:30.214Z,98279.84
2017-12-04T22:34:55.972Z,98270.37
2017-12-04T22:37:21.753Z,98274.64
2017-12-04T22:39:47.571Z,98269.49
2017-12-04T22:42:13.398Z,98270.34
2017-12-04T22:44:39.201Z,98277.66
2017-12-04T22:47:04.996Z,98284.98
2017-12-04T22:49:30.809Z,98276.38
2017-12-04T22:51:56.615Z,98277.71
2017-12-04T22:54:22.451Z,98280.73
2017-12-04T22:56:48.270Z,98286.75
2017-12-04T22:59:14.077Z,98291.92
2017-12-04T23:01:39.911Z,98286.34
2017-12-04T23:04:05.712Z,98287.60
2017-12-04T23:06:31.499Z,98284.52
2017-12-04T23:08:57.276Z,98287.09
2017-12-04T23:11:24.267Z,98281.57
2017-12-04T23:13:50.122Z,98293.59
2017-12-04T23:16:18.759Z,98292.71
2017-12-04T23:18:44.613Z,98298.77
2017-12-04T23:21:10.457Z,98294.04
2017-12-04T23:23:36.268Z,98296.62
2017-12-04T23:26:02.052Z,98286.30
2017-12-04T23:28:31.240Z,98295.30
2017-12-04T23:30:57.065Z,98301.70
2017-12-04T23:33:26.383Z,98297.86
2017-12-04T23:35:52.218Z,98299.53
2017-12-04T23:38:21.399Z,98301.70
2017-12-04T23:40:47.200Z,98297.37
2017-12-04T23:43:15.560Z,98295.18
2017-12-04T23:45:41.371Z,98295.18
2017-12-04T23:48:10.849Z,98289.59
2017-12-04T23:50:36.635Z,98296.88
2017-12-04T23:53:04.273Z,98298.58
2017-12-04T23:55:30.064Z,98291.73
2017-12-04T23:57:55.881Z,98294.77
